createdAt,value
2023-05-16T00:01:15.872Z,11.16
2023-05-16T00:03:42.577Z,11.23
2023-05-16T00:06:09.139Z,11.20
2023-05-16T00:08:35.272Z,11.19
2023-05-16T00:11:01.105Z,11.20
2023-05-16T00:13:28.993Z,11.22
2023-05-16T00:15:55.502Z,11.18
2023-05-16T00:18:22.251Z,11.15
2023-05-16T00:20:49.142Z,11.26
2023-05-16T00:23:14.906Z,11.18
2023-05-16T00:25:40.676Z,11.22
2023-05-16T00:28:08.005Z,11.16
2023-05-16T00:30:34.556Z,11.09
2023-05-16T00:33:01.268Z,11.14
2023-05-16T00:35:27.235Z,11.02
2023-05-16T00:37:53.020Z,11.07
2023-05-16T00:40:18.957Z,11.08
2023-05-16T00:42:44.844Z,10.80
2023-05-16T00:45:13.200Z,10.60
2023-05-16T00:47:39.031Z,10.44
2023-05-16T00:50:06.584Z,10.48
2023-05-16T00:52:33.041Z,10.41
2023-05-16T00:54:59.134Z,10.39
2023-05-16T00:57:25.040Z,10.19
2023-05-16T00:59:51.113Z,10.32
2023-05-16T01:02:17.286Z,10.04
2023-05-16T01:04:43.866Z,9.93
2023-05-16T01:07:10.033Z,10.06
2023-05-16T01:09:36.055Z,10.13
2023-05-16T01:12:13.995Z,9.95
2023-05-16T01:14:59.779Z,9.98
2023-05-16T01:17:47.481Z,9.97
2023-05-16T01:20:39.934Z,9.85
2023-05-16T01:23:26.096Z,10.04
2023-05-16T01:26:11.052Z,10.00
2023-05-16T01:28:38.810Z,9.79
2023-05-16T01:31:05.210Z,9.85
2023-05-16T01:33:31.108Z,9.83
2023-05-16T01:36:05.913Z,9.65
2023-05-16T01:38:50.414Z,9.75
2023-05-16T01:42:07.301Z,9.79
2023-05-16T01:44:59.175Z,9.81
2023-05-16T01:47:27.201Z,9.86
2023-05-16T01:50:17.082Z,9.72
2023-05-16T01:52:58.239Z,9.86
2023-05-16T01:55:46.016Z,9.75
2023-05-16T01:58:14.651Z,9.90
2023-05-16T02:00:41.618Z,9.93
2023-05-16T02:03:07.929Z,10.01
2023-05-16T02:05:34.221Z,9.75
2023-05-16T02:08:00.673Z,9.73
2023-05-16T02:10:27.483Z,9.73
2023-05-16T02:12:53.588Z,9.74
2023-05-16T02:15:19.782Z,9.73
2023-05-16T02:17:46.645Z,9.64
2023-05-16T02:20:12.699Z,9.64
2023-05-16T02:22:38.594Z,9.74
2023-05-16T02:25:05.354Z,9.72
2023-05-16T02:27:31.610Z,9.71
2023-05-16T02:29:58.059Z,9.75
2023-05-16T02:32:23.981Z,9.62
2023-05-16T02:34:49.851Z,9.67
2023-05-16T02:37:15.829Z,9.59
2023-05-16T02:39:41.699Z,9.62
2023-05-16T02:42:07.559Z,9.87
2023-05-16T02:44:33.622Z,9.65
2023-05-16T02:46:59.434Z,9.70
2023-05-16T02:49:25.663Z,9.74
2023-05-16T02:51:51.666Z,9.77
2023-05-16T02:54:18.086Z,9.74
2023-05-16T02:56:44.260Z,9.61
2023-05-16T02:59:10.930Z,9.51
2023-05-16T03:01:37.007Z,9.53
2023-05-16T03:04:03.361Z,9.37
2023-05-16T03:06:32.228Z,9.28
2023-05-16T03:08:58.094Z,9.14
2023-05-16T03:11:24.160Z,9.31
2023-05-16T03:13:50.118Z,9.16
2023-05-16T03:16:16.059Z,8.88
2023-05-16T03:18:42.521Z,8.66
2023-05-16T03:21:08.405Z,8.56
2023-05-16T03:23:34.262Z,8.47
2023-05-16T03:26:00.403Z,8.39
2023-05-16T03:28:26.243Z,8.33
2023-05-16T03:30:52.416Z,8.41
2023-05-16T03:33:21.153Z,8.12
2023-05-16T03:35:47.069Z,8.15
2023-05-16T03:38:12.907Z,8.16
2023-05-16T03:40:39.264Z,8.21
2023-05-16T03:43:05.166Z,8.00
2023-05-16T03:45:31.148Z,8.12
2023-05-16T03:47:57.549Z,8.19
2023-05-16T03:50:23.714Z,8.28
2023-05-16T03:52:49.671Z,8.10
2023-05-16T03:55:15.820Z,8.12
2023-05-16T03:57:42.311Z,8.02
2023-05-16T04:00:13.256Z,8.08
2023-05-16T04:02:40.152Z,8.25
2023-05-16T04:05:10.698Z,8.16
2023-05-16T04:07:37.340Z,8.19
2023-05-16T04:10:04.390Z,8.22
2023-05-16T04:12:30.262Z,8.21
2023-05-16T04:14:56.137Z,8.23
2023-05-16T04:17:22.006Z,8.14
2023-05-16T04:19:47.904Z,8.26
2023-05-16T04:22:13.744Z,8.23
2023-05-16T04:24:39.698Z,8.10
2023-05-16T04:27:08.247Z,8.20
2023-05-16T04:29:35.040Z,8.15
2023-05-16T04:32:01.821Z,8.01
2023-05-16T04:34:27.677Z,8.03
2023-05-16T04:36:54.756Z,8.07
2023-05-16T04:39:20.832Z,7.86
2023-05-16T04:41:47.060Z,7.77
2023-05-16T04:44:12.921Z,7.82
2023-05-16T04:46:39.224Z,7.96
2023-05-16T04:49:05.443Z,8.09
2023-05-16T04:51:33.232Z,8.09
2023-05-16T04:53:59.523Z,8.00
2023-05-16T04:56:26.372Z,7.95
2023-05-16T04:58:52.638Z,7.93
2023-05-16T05:01:18.513Z,7.98
2023-05-16T05:07:35.340Z,7.97
2023-05-16T05:10:01.636Z,7.96
2023-05-16T05:12:27.859Z,8.00
2023-05-16T05:14:54.136Z,8.03
2023-05-16T05:17:20.987Z,7.94
2023-05-16T05:19:47.677Z,7.87
2023-05-16T05:22:14.325Z,7.90
2023-05-16T05:24:40.276Z,7.80
2023-05-16T05:27:06.160Z,7.78
2023-05-16T05:29:32.051Z,7.79
2023-05-16T05:31:58.931Z,7.62
2023-05-16T05:34:24.829Z,7.53
2023-05-16T05:36:50.664Z,7.39
2023-05-16T05:39:16.690Z,7.46
2023-05-16T05:41:42.571Z,7.37
2023-05-16T05:44:08.414Z,7.42
2023-05-16T05:46:34.543Z,7.27
2023-05-16T05:49:00.775Z,7.40
2023-05-16T05:51:26.824Z,7.26
2023-05-16T05:53:53.498Z,7.35
2023-05-16T05:56:20.706Z,7.49
2023-05-16T05:58:46.848Z,7.68
2023-05-16T06:01:12.779Z,7.66
2023-05-16T06:03:38.954Z,7.72
2023-05-16T06:06:05.099Z,7.61
2023-05-16T06:08:30.876Z,7.67
2023-05-16T06:10:56.696Z,7.74
2023-05-16T06:13:22.547Z,8.02
2023-05-16T06:15:52.381Z,7.81
2023-05-16T06:18:18.383Z,7.93
2023-05-16T06:20:44.356Z,7.74
2023-05-16T06:23:10.220Z,7.76
2023-05-16T06:25:36.093Z,8.10
2023-05-16T06:28:01.939Z,8.23
2023-05-16T06:30:27.798Z,8.44
2023-05-16T06:32:53.937Z,8.44
2023-05-16T06:35:20.248Z,8.52
2023-05-16T06:37:46.072Z,8.39
2023-05-16T06:40:14.725Z,8.36
2023-05-16T06:42:40.627Z,8.53
2023-05-16T06:45:07.299Z,8.52
2023-05-16T06:47:33.364Z,8.67
2023-05-16T06:49:59.269Z,8.54
2023-05-16T06:52:25.315Z,8.55
2023-05-16T06:54:52.182Z,8.34
2023-05-16T06:57:18.035Z,8.32
2023-05-16T06:59:44.010Z,8.22
2023-05-16T07:02:10.005Z,8.19
2023-05-16T07:04:37.197Z,8.11
2023-05-16T07:07:03.836Z,8.29
2023-05-16T07:09:30.614Z,8.49
2023-05-16T07:11:56.622Z,8.57
2023-05-16T07:14:22.687Z,8.45
2023-05-16T07:16:48.606Z,8.41
2023-05-16T07:19:14.605Z,8.33
2023-05-16T07:21:40.917Z,8.21
2023-05-16T07:24:07.411Z,8.20
2023-05-16T07:26:33.412Z,8.03
2023-05-16T07:28:59.383Z,7.98
2023-05-16T07:31:25.308Z,8.00
2023-05-16T07:33:51.237Z,8.30
2023-05-16T07:36:17.773Z,8.33
2023-05-16T07:38:44.299Z,8.30
2023-05-16T07:41:10.249Z,8.33
2023-05-16T07:43:36.234Z,8.38
2023-05-16T07:46:02.723Z,8.66
2023-05-16T07:48:28.681Z,8.80
2023-05-16T07:50:55.843Z,8.98
2023-05-16T07:53:21.945Z,8.97
2023-05-16T07:55:48.704Z,8.96
2023-05-16T07:58:14.706Z,8.63
2023-05-16T08:00:40.713Z,8.62
2023-05-16T08:03:06.760Z,8.80
2023-05-16T08:05:32.898Z,8.90
2023-05-16T08:07:58.824Z,8.91
2023-05-16T08:10:25.075Z,8.92
2023-05-16T08:12:52.596Z,9.07
2023-05-16T08:15:18.640Z,9.06
2023-05-16T08:17:45.006Z,9.14
2023-05-16T08:20:11.744Z,9.33
2023-05-16T08:22:38.011Z,9.71
2023-05-16T08:25:04.517Z,9.73
2023-05-16T08:27:30.408Z,9.37
2023-05-16T08:29:56.210Z,9.33
2023-05-16T08:32:22.569Z,9.34
2023-05-16T08:34:48.459Z,9.30
2023-05-16T08:37:15.960Z,9.23
2023-05-16T08:39:43.184Z,9.33
2023-05-16T08:42:09.132Z,9.32
2023-05-16T08:44:35.051Z,9.33
2023-05-16T08:47:12.220Z,9.25
2023-05-16T08:49:40.812Z,9.19
2023-05-16T08:52:09.136Z,9.14
2023-05-16T08:54:36.701Z,9.15
2023-05-16T08:57:04.231Z,8.90
2023-05-16T08:59:30.951Z,9.02
2023-05-16T09:01:57.584Z,8.96
2023-05-16T09:04:25.326Z,9.10
2023-05-16T09:06:51.790Z,9.21
2023-05-16T09:09:17.708Z,9.31
2023-05-16T09:11:43.714Z,9.52
2023-05-16T09:14:09.569Z,9.47
2023-05-16T09:16:35.477Z,9.89
2023-05-16T09:19:01.579Z,10.08
2023-05-16T09:21:33.449Z,10.25
2023-05-16T09:24:06.659Z,10.53
2023-05-16T09:26:39.298Z,10.26
2023-05-16T09:29:12.494Z,10.26
2023-05-16T09:31:39.073Z,10.34
2023-05-16T09:34:11.984Z,10.17
2023-05-16T09:36:38.471Z,10.06
2023-05-16T09:39:07.553Z,9.80
2023-05-16T09:41:34.764Z,9.91
2023-05-16T09:44:05.350Z,9.91
2023-05-16T09:46:34.205Z,10.21
2023-05-16T09:49:00.120Z,10.44
2023-05-16T09:51:26.496Z,10.82
2023-05-16T09:53:52.447Z,11.27
2023-05-16T09:56:18.461Z,11.52
2023-05-16T09:58:45.617Z,11.26
2023-05-16T10:01:12.087Z,10.88
2023-05-16T10:03:40.088Z,10.92
2023-05-16T10:06:07.651Z,10.66
2023-05-16T10:08:35.852Z,10.57
2023-05-16T10:11:03.952Z,11.10
2023-05-16T10:13:32.506Z,11.17
2023-05-16T10:15:59.883Z,11.27
2023-05-16T10:18:30.679Z,11.06
2023-05-16T10:21:11.227Z,10.87
2023-05-16T10:23:42.004Z,10.85
2023-05-16T10:26:08.609Z,10.63
2023-05-16T10:28:35.954Z,10.97
2023-05-16T10:31:02.508Z,11.78
2023-05-16T10:33:28.655Z,12.29
2023-05-16T10:35:55.259Z,12.00
2023-05-16T10:38:23.685Z,11.96
2023-05-16T10:40:50.674Z,12.15
2023-05-16T10:43:25.197Z,12.83
2023-05-16T10:45:59.131Z,13.06
2023-05-16T10:48:33.248Z,13.47
2023-05-16T10:50:59.354Z,13.32
2023-05-16T10:53:28.078Z,12.94
2023-05-16T10:56:00.455Z,12.77
2023-05-16T10:58:38.293Z,12.70
2023-05-16T11:01:18.945Z,11.78
2023-05-16T11:03:57.812Z,12.20
2023-05-16T11:06:25.563Z,12.22
2023-05-16T11:09:18.502Z,12.76
2023-05-16T11:11:59.675Z,12.65
2023-05-16T11:14:33.085Z,13.69
2023-05-16T11:17:22.767Z,14.64
2023-05-16T11:19:58.381Z,15.09
2023-05-16T11:22:27.771Z,15.37
2023-05-16T11:25:04.996Z,15.57
2023-05-16T11:27:33.294Z,15.51
2023-05-16T11:30:21.069Z,15.07
2023-05-16T11:32:47.903Z,15.63
2023-05-16T11:35:16.220Z,15.70
2023-05-16T11:37:43.398Z,15.52
2023-05-16T11:40:11.751Z,15.90
2023-05-16T11:42:47.860Z,15.36
2023-05-16T11:45:24.012Z,15.36
2023-05-16T11:47:50.681Z,15.92
2023-05-16T11:50:18.952Z,16.11
2023-05-16T11:52:48.455Z,16.54
2023-05-16T11:55:28.338Z,16.07
2023-05-16T11:58:03.870Z,16.13
2023-05-16T12:00:29.920Z,15.71
2023-05-16T12:03:03.642Z,15.29
2023-05-16T12:05:32.199Z,15.57
2023-05-16T12:07:59.118Z,15.11
2023-05-16T12:10:25.784Z,14.81
2023-05-16T12:12:52.346Z,14.30
2023-05-16T12:15:18.812Z,13.97
2023-05-16T12:17:46.415Z,13.64
2023-05-16T12:20:13.848Z,13.99
2023-05-16T12:22:40.899Z,15.19
2023-05-16T12:25:25.508Z,15.80
2023-05-16T12:27:56.574Z,15.33
2023-05-16T12:30:24.077Z,15.03
2023-05-16T12:33:09.528Z,14.45
2023-05-16T12:35:38.550Z,14.17
2023-05-16T12:38:06.952Z,13.67
2023-05-16T12:40:33.098Z,13.48
2023-05-16T12:43:00.375Z,12.92
2023-05-16T12:45:27.316Z,13.02
2023-05-16T12:47:53.335Z,12.81
2023-05-16T12:50:19.564Z,12.68
2023-05-16T12:52:58.954Z,12.56
2023-05-16T12:55:25.488Z,12.36
2023-05-16T12:57:51.538Z,12.30
2023-05-16T13:00:20.106Z,11.86
2023-05-16T13:02:47.761Z,11.80
2023-05-16T13:05:14.202Z,11.93
2023-05-16T13:07:41.037Z,11.70
2023-05-16T13:10:11.488Z,11.57
2023-05-16T13:12:38.535Z,11.69
2023-05-16T13:15:06.791Z,11.69
2023-05-16T13:17:37.339Z,11.54
2023-05-16T13:20:14.135Z,11.56
2023-05-16T13:22:40.718Z,11.70
2023-05-16T13:25:07.410Z,11.63
2023-05-16T13:27:33.503Z,11.79
2023-05-16T13:29:59.973Z,12.00
2023-05-16T13:32:26.406Z,12.45
2023-05-16T13:34:52.786Z,13.04
2023-05-16T13:37:18.868Z,13.01
2023-05-16T13:39:44.938Z,12.78
2023-05-16T13:42:10.836Z,12.45
2023-05-16T13:44:36.878Z,12.19
2023-05-16T13:47:03.100Z,12.01
2023-05-16T13:49:29.243Z,11.91
2023-05-16T13:51:55.195Z,12.01
2023-05-16T13:54:22.069Z,12.04
2023-05-16T13:56:48.235Z,12.37
2023-05-16T13:59:18.561Z,12.65
2023-05-16T14:01:56.631Z,12.86
2023-05-16T14:04:22.873Z,13.10
2023-05-16T14:06:49.251Z,13.14
2023-05-16T14:09:16.189Z,13.14
2023-05-16T14:11:42.126Z,12.91
2023-05-16T14:14:08.077Z,12.95
2023-05-16T14:16:34.078Z,12.88
2023-05-16T14:19:00.179Z,12.76
2023-05-16T14:21:26.288Z,12.57
2023-05-16T14:23:52.204Z,12.59
2023-05-16T14:26:21.917Z,12.81
2023-05-16T14:28:48.166Z,12.67
2023-05-16T14:31:14.041Z,12.77
2023-05-16T14:33:40.437Z,13.53
2023-05-16T14:36:08.646Z,14.38
2023-05-16T14:38:34.815Z,15.06
2023-05-16T14:41:00.834Z,15.36
2023-05-16T14:43:26.713Z,15.09
2023-05-16T14:45:52.646Z,14.96
2023-05-16T14:48:18.745Z,15.03
2023-05-16T14:50:45.319Z,14.60
2023-05-16T14:53:11.554Z,14.91
2023-05-16T14:55:37.610Z,15.27
2023-05-16T14:58:04.759Z,15.73
2023-05-16T15:00:31.435Z,15.12
2023-05-16T15:02:57.552Z,14.67
2023-05-16T15:05:24.897Z,14.23
2023-05-16T15:07:51.644Z,14.11
2023-05-16T15:10:17.501Z,14.10
2023-05-16T15:12:43.344Z,14.05
2023-05-16T15:15:14.936Z,14.55
2023-05-16T15:17:42.493Z,14.60
2023-05-16T15:20:09.932Z,15.06
2023-05-16T15:22:36.492Z,15.18
2023-05-16T15:25:04.116Z,15.51
2023-05-16T15:27:29.961Z,15.41
2023-05-16T15:29:55.935Z,15.08
2023-05-16T15:32:22.989Z,14.80
2023-05-16T15:34:49.135Z,14.25
2023-05-16T15:37:15.368Z,13.71
2023-05-16T15:39:41.673Z,13.50
2023-05-16T15:42:11.157Z,13.32
2023-05-16T15:44:37.886Z,13.38
2023-05-16T15:47:04.124Z,13.40
2023-05-16T15:49:30.257Z,13.10
2023-05-16T15:51:56.212Z,13.14
2023-05-16T15:54:22.133Z,12.96
2023-05-16T15:56:48.160Z,12.78
2023-05-16T15:59:14.066Z,12.70
2023-05-16T16:01:40.271Z,12.64
2023-05-16T16:04:06.625Z,12.57
2023-05-16T16:06:32.516Z,12.57
2023-05-16T16:08:58.536Z,12.51
2023-05-16T16:11:26.697Z,12.36
2023-05-16T16:13:52.558Z,12.51
2023-05-16T16:16:20.496Z,12.42
2023-05-16T16:18:46.952Z,12.18
2023-05-16T16:21:13.217Z,12.26
2023-05-16T16:23:39.508Z,12.45
2023-05-16T16:26:05.923Z,12.35
2023-05-16T16:28:32.167Z,12.54
2023-05-16T16:30:58.462Z,12.40
2023-05-16T16:33:24.454Z,12.37
2023-05-16T16:35:52.086Z,12.43
2023-05-16T16:38:18.390Z,12.39
2023-05-16T16:40:44.465Z,12.63
2023-05-16T16:43:10.436Z,12.87
2023-05-16T16:45:36.413Z,12.48
2023-05-16T16:48:02.771Z,12.18
2023-05-16T16:50:28.882Z,12.08
2023-05-16T16:52:54.857Z,11.67
2023-05-16T16:55:21.241Z,11.78
2023-05-16T16:57:47.133Z,11.64
2023-05-16T17:00:13.502Z,11.74
2023-05-16T17:02:39.483Z,11.50
2023-05-16T17:05:06.105Z,11.64
2023-05-16T17:07:32.396Z,11.69
2023-05-16T17:09:58.414Z,11.71
2023-05-16T17:12:27.711Z,11.52
2023-05-16T17:14:55.495Z,11.57
2023-05-16T17:17:23.056Z,11.67
2023-05-16T17:19:48.962Z,11.50
2023-05-16T17:22:15.251Z,11.55
2023-05-16T17:24:41.455Z,11.66
2023-05-16T17:27:07.430Z,11.63
2023-05-16T17:29:33.420Z,11.77
2023-05-16T17:31:59.414Z,11.38
2023-05-16T17:34:26.065Z,11.43
2023-05-16T17:36:52.137Z,11.25
2023-05-16T17:39:18.360Z,11.29
2023-05-16T17:41:44.372Z,11.20
2023-05-16T17:44:10.299Z,10.99
2023-05-16T17:46:39.309Z,10.96
2023-05-16T17:49:07.295Z,10.98
2023-05-16T17:51:47.021Z,10.95
2023-05-16T17:54:13.160Z,10.66
2023-05-16T17:56:39.238Z,10.62
2023-05-16T17:59:05.267Z,10.68
2023-05-16T18:01:32.252Z,10.76
2023-05-16T18:03:58.252Z,10.79
2023-05-16T18:06:24.247Z,10.58
2023-05-16T18:08:50.176Z,10.52
2023-05-16T18:11:16.623Z,10.42
2023-05-16T18:13:43.376Z,10.18
2023-05-16T18:16:09.482Z,10.20
2023-05-16T18:18:37.128Z,10.18
2023-05-16T18:21:04.985Z,10.07
2023-05-16T18:23:32.953Z,10.11
2023-05-16T18:25:58.849Z,9.84
2023-05-16T18:28:24.783Z,9.83
2023-05-16T18:30:51.004Z,9.71
2023-05-16T18:33:17.086Z,9.72
2023-05-16T18:35:43.094Z,9.70
2023-05-16T18:38:14.447Z,9.82
2023-05-16T18:40:47.407Z,9.74
2023-05-16T18:43:14.365Z,9.77
2023-05-16T18:45:40.412Z,9.70
2023-05-16T18:48:06.681Z,9.69
2023-05-16T18:50:32.706Z,9.66
2023-05-16T18:52:58.711Z,9.64
2023-05-16T18:55:25.035Z,9.60
2023-05-16T18:57:51.440Z,9.55
2023-05-16T19:00:19.305Z,9.59
2023-05-16T19:02:46.437Z,9.59
2023-05-16T19:05:14.643Z,9.75
2023-05-16T19:07:41.456Z,9.70
2023-05-16T19:10:08.421Z,9.40
2023-05-16T19:12:34.609Z,9.47
2023-05-16T19:15:00.964Z,9.44
2023-05-16T19:17:27.174Z,9.53
2023-05-16T19:19:53.215Z,9.43
2023-05-16T19:22:19.372Z,9.49
2023-05-16T19:24:45.577Z,9.54
2023-05-16T19:27:11.582Z,9.47
2023-05-16T19:29:37.536Z,9.39
2023-05-16T19:32:04.029Z,9.49
2023-05-16T19:34:30.258Z,9.44
2023-05-16T19:36:56.449Z,9.47
2023-05-16T19:39:22.582Z,9.50
2023-05-16T19:41:52.186Z,9.52
2023-05-16T19:44:19.105Z,9.49
2023-05-16T19:46:45.588Z,9.48
2023-05-16T19:49:11.662Z,9.64
2023-05-16T19:51:41.769Z,9.56
2023-05-16T19:54:08.700Z,9.64
2023-05-16T19:56:34.914Z,9.59
2023-05-16T19:59:00.917Z,9.52
2023-05-16T20:01:27.086Z,9.48
2023-05-16T20:03:53.371Z,9.34
2023-05-16T20:06:19.418Z,9.37
2023-05-16T20:08:45.618Z,9.44
2023-05-16T20:11:12.571Z,9.40
2023-05-16T20:13:38.622Z,9.54
2023-05-16T20:16:05.135Z,9.43
2023-05-16T20:18:31.127Z,9.41
2023-05-16T20:20:58.590Z,9.25
2023-05-16T20:23:24.852Z,9.34
2023-05-16T20:25:50.864Z,9.25
2023-05-16T20:28:16.956Z,9.25
2023-05-16T20:30:42.879Z,9.44
2023-05-16T20:33:08.844Z,9.35
2023-05-16T20:35:34.779Z,9.31
2023-05-16T20:38:00.692Z,9.21
2023-05-16T20:40:26.741Z,9.25
2023-05-16T20:42:52.626Z,9.24
2023-05-16T20:45:18.477Z,9.26
2023-05-16T20:47:44.481Z,9.32
2023-05-16T20:50:10.567Z,9.26
2023-05-16T20:52:36.446Z,9.24
2023-05-16T20:55:02.462Z,9.28
2023-05-16T20:57:28.316Z,9.20
2023-05-16T20:59:54.180Z,9.36
2023-05-16T21:02:20.353Z,9.37
2023-05-16T21:04:46.654Z,9.36
2023-05-16T21:07:12.881Z,9.26
2023-05-16T21:09:39.417Z,9.14
2023-05-16T21:12:05.738Z,8.99
2023-05-16T21:14:31.678Z,9.03
2023-05-16T21:16:57.533Z,9.07
2023-05-16T21:19:23.581Z,8.94
2023-05-16T21:21:49.801Z,9.05
2023-05-16T21:24:15.686Z,9.18
2023-05-16T21:26:41.673Z,8.98
2023-05-16T21:29:07.646Z,8.86
2023-05-16T21:31:33.536Z,8.82
2023-05-16T21:33:59.488Z,8.85
2023-05-16T21:36:25.591Z,8.77
2023-05-16T21:38:51.738Z,8.78
2023-05-16T21:41:18.761Z,8.81
2023-05-16T21:43:44.730Z,8.50
2023-05-16T21:46:10.624Z,8.55
2023-05-16T21:48:36.674Z,8.56
2023-05-16T21:51:03.327Z,8.65
2023-05-16T21:53:29.418Z,8.70
2023-05-16T21:55:55.284Z,8.69
2023-05-16T21:58:21.368Z,8.53
2023-05-16T22:00:47.412Z,8.40
2023-05-16T22:03:13.652Z,8.45
2023-05-16T22:05:39.604Z,8.40
2023-05-16T22:08:07.230Z,8.39
2023-05-16T22:10:33.086Z,8.38
2023-05-16T22:12:59.104Z,8.25
2023-05-16T22:15:25.138Z,8.30
2023-05-16T22:17:51.250Z,8.41
2023-05-16T22:20:17.648Z,8.39
2023-05-16T22:22:44.183Z,8.25
2023-05-16T22:25:10.161Z,8.32
2023-05-16T22:27:36.019Z,8.30
2023-05-16T22:30:01.936Z,8.36
2023-05-16T22:32:28.167Z,8.28
2023-05-16T22:34:54.053Z,8.30
2023-05-16T22:37:19.929Z,8.34
2023-05-16T22:39:45.986Z,8.32
2023-05-16T22:42:11.808Z,8.36
2023-05-16T22:44:37.672Z,8.30
2023-05-16T22:47:03.754Z,8.30
2023-05-16T22:49:29.873Z,8.26
2023-05-16T22:51:55.762Z,8.08
2023-05-16T22:54:21.691Z,8.29
2023-05-16T22:56:47.546Z,8.21
2023-05-16T22:59:14.255Z,8.20
2023-05-16T23:01:40.248Z,8.10
2023-05-16T23:04:06.201Z,8.08
2023-05-16T23:06:32.313Z,8.06
2023-05-16T23:08:59.742Z,8.03
2023-05-16T23:11:25.733Z,7.93
2023-05-16T23:13:53.974Z,7.89
2023-05-16T23:16:19.854Z,7.86
2023-05-16T23:18:45.827Z,7.83
2023-05-16T23:21:11.774Z,7.81
2023-05-16T23:23:37.707Z,7.88
2023-05-16T23:26:03.645Z,7.81
2023-05-16T23:28:29.613Z,7.89
2023-05-16T23:30:55.612Z,7.93
2023-05-16T23:33:21.580Z,7.98
2023-05-16T23:35:47.540Z,8.06
2023-05-16T23:38:13.372Z,7.96
2023-05-16T23:40:39.236Z,7.96
2023-05-16T23:43:05.129Z,7.94
2023-05-16T23:45:31.020Z,7.84
2023-05-16T23:47:57.267Z,7.95
2023-05-16T23:50:23.310Z,7.94
2023-05-16T23:52:49.948Z,7.99
2023-05-16T23:55:15.983Z,7.91
2023-05-16T23:57:41.935Z,7.91
